TSI weather

Santa Bárbara Airport
Tesalia, Huila Department, Colombia

Public forecast

Using degrees Celsius for public forecast. Weather courtesy of forecast.io.

METAR (pilot weather report)

Closest report is Benito Salas Airport, 39.9 nm (73.9 km) NE. Retrieved 2019/08/21 23:00 UTC (43 minutes ago):

SKNV 212300Z 15007KT 090V190 9999 NSC 34/11 A2985

TAF (pilot weather forecast)

Closest forecast is Alfonso Bonilla Aragon International Airport, 75.6 nm (140.0 km) NNW. Retrieved 2019/08/21 18:45 UTC (5 hours ago):

TAF SKCL 211630Z 2118/2218 15003KT 9999 FEW017 BKN100 BECMG 2120/2122 VRB02KT BECMG 2209/2211 36005KT TX33/2119Z TN18/2211Z